Latest Weather Observations for Noarlunga

IDS60901

Issued at 2:31 pm CST Saturday 25 June 2016 (issued every 10 minutes, with the page automatically refreshed every 10 minutes)

About weather observations | Map of Adelaide area stations | Latest observations for Adelaide area | Other Formats
Station Details ID: 023885 Name: NOARLUNGA Lat: -35.16 Lon: 138.51 Height: 55.0 m
Data from the previous 72 hours. | See also: Recent months at Noarlunga
Date/Time
CST
Temp
°C
App
Temp
°C
Dew
Point
°C
Rel
Hum
%
Delta-T
°C
Wind Press
QNH
hPa
Press
MSL
hPa
Rain since
9am
mm
Dir  Spd
km/h
Gust
km/h
Spd
kts
Gust
kts
25/02:30pm 13.1 9.2 5.5 60 3.6 NNW 15 24 8 13 - - 0.0
25/02:00pm 12.6 8.4 5.5 62 3.3 NNW 17 22 9 12 - - 0.0
25/01:30pm 12.7 8.1 5.6 62 3.3 N 19 26 10 14 - - 0.0
25/01:00pm 12.8 9.0 5.7 62 3.3 NNW 15 26 8 14 - - 0.0
25/12:30pm 12.7 9.0 6.1 64 3.1 NNW 15 24 8 13 - - 0.0
25/12:00pm 12.6 8.1 6.0 64 3.1 N 19 24 10 13 - - 0.0
25/11:30am 12.0 8.1 5.4 64 3.1 NNW 15 24 8 13 - - 0.0
25/11:00am 12.1 8.5 6.6 69 2.6 N 15 24 8 13 - - 0.0
25/10:30am 11.3 7.9 5.8 69 2.6 N 13 20 7 11 - - 0.0
25/10:00am 11.0 7.7 6.6 74 2.1 N 13 19 7 10 - - 0.0
25/09:30am 10.6 7.8 6.9 78 1.8 NNE 11 19 6 10 - - 0.0
25/09:00am 9.6 5.5 6.3 80 1.5 NE 17 24 9 13 - - 0.2
25/08:30am 8.7 5.0 6.3 85 1.1 NNE 15 20 8 11 - - 0.2
25/08:00am 7.7 3.9 5.7 87 0.9 NNE 15 22 8 12 - - 0.2
25/07:30am 7.2 3.3 5.3 88 0.8 NE 15 20 8 11 - - 0.2
25/07:00am 7.2 3.6 5.0 86 1.0 NE 13 17 7 9 - - 0.2
25/06:30am 7.3 3.7 4.8 84 1.1 NE 13 19 7 10 - - 0.2
25/06:00am 7.3 3.6 4.4 82 1.3 NE 13 19 7 10 - - 0.2
25/05:30am 7.2 3.8 4.2 81 1.3 NE 11 17 6 9 - - 0.2
25/05:00am 7.2 3.8 4.2 81 1.3 NE 11 15 6 8 - - 0.2
25/04:30am 7.0 3.6 4.1 82 1.2 NE 11 17 6 9 - - 0.2
25/04:00am 6.9 3.1 4.0 82 1.2 NE 13 19 7 10 - - 0.2
25/03:30am 6.5 3.1 3.8 83 1.1 NE 11 17 6 9 - - 0.2
25/03:00am 6.3 2.9 3.8 84 1.1 NE 11 13 6 7 - - 0.2
25/02:30am 6.0 2.5 3.7 85 1.0 NE 11 13 6 7 - - 0.2
25/02:00am 6.1 3.0 3.6 84 1.1 NE 9 11 5 6 - - 0.2
25/01:30am 6.3 3.8 3.6 83 1.1 ENE 6 7 3 4 - - 0.2
25/01:00am 6.2 4.0 3.5 83 1.1 ENE 4 6 2 3 - - 0.2
25/12:30am 6.5 4.0 3.5 81 1.3 E 6 7 3 4 - - 0.2
25/12:00am 6.8 4.6 3.6 80 1.4 E 4 6 2 3 - - 0.2
 
Date/Time
CST
Temp
°C
App
Temp
°C
Dew
Point
°C
Rel
Hum
%
Delta-T
°C
Wind Press
QNH
hPa
Press
MSL
hPa
Rain since
9am
mm
Dir  Spd
km/h
Gust
km/h
Spd
kts
Gust
kts
24/11:30pm 7.3 4.8 3.9 79 1.5 ENE 6 7 3 4 - - 0.2
24/11:00pm 7.3 4.7 4.1 80 1.4 NE 7 9 4 5 - - 0.2
24/10:30pm 7.8 6.5 4.0 77 1.6 CALM 0 0 0 0 - - 0.2
24/10:00pm 9.1 7.2 4.7 74 2.0 ENE 4 9 2 5 - - 0.2
24/09:30pm 7.7 5.9 3.6 75 1.8 E 2 6 1 3 - - 0.2
24/09:00pm 8.6 7.2 3.4 70 2.2 CALM 0 0 0 0 - - 0.2
24/08:30pm 9.5 7.7 3.7 67 2.5 SSW 2 4 1 2 - - 0.2
24/08:00pm 9.5 7.4 3.9 68 2.5 SSE 4 6 2 3 - - 0.2
24/07:30pm 9.4 7.6 3.6 67 2.5 SSE 2 4 1 2 - - 0.2
24/07:00pm 9.7 7.0 3.7 66 2.6 S 7 9 4 5 - - 0.2
24/06:30pm 10.3 7.5 3.3 62 3.1 SSW 7 13 4 7 - - 0.2
24/06:00pm 11.1 7.1 2.7 56 3.6 SSW 13 24 7 13 - - 0.2
24/05:30pm 11.2 7.0 3.7 60 3.3 SW 15 24 8 13 - - 0.2
24/05:00pm 10.5 7.4 5.7 72 2.2 W 11 19 6 10 - - 0.2
24/04:30pm 11.4 7.7 4.6 63 3.1 SW 13 20 7 11 - - 0.2
24/04:00pm 11.0 7.3 4.7 65 2.9 SW 13 24 7 13 - - 0.2
24/03:30pm 11.6 7.0 5.5 66 2.8 SW 19 30 10 16 - - 0.2
24/03:00pm 12.4 6.9 3.9 56 3.8 WSW 22 33 12 18 - - 0.2
24/02:30pm 11.8 8.8 5.9 67 2.8 SW 11 17 6 9 - - 0.2
24/02:00pm 12.1 8.6 5.5 64 3.1 WSW 13 20 7 11 - - 0.2
24/01:30pm 12.1 8.5 4.8 61 3.3 SW 13 20 7 11 - - 0.2
24/01:00pm 11.7 5.8 4.0 59 3.5 WSW 24 35 13 19 - - 0.2
24/12:30pm 11.1 7.2 5.4 68 2.6 WSW 15 28 8 15 - - 0.2
24/12:00pm 8.9 2.4 4.5 74 1.9 SSW 28 43 15 23 - - 0.2
24/11:30am 11.6 6.1 3.9 59 3.4 WSW 22 33 12 18 - - 0.0
24/11:00am 11.1 6.0 3.9 61 3.2 SW 20 32 11 17 - - 0.0
24/10:30am 9.5 3.2 3.9 68 2.5 SW 26 41 14 22 - - 0.0
24/10:06am 11.1 3.6 1.1 50 4.2 SW 30 48 16 26 - - 0.0
24/10:00am 11.1 4.8 1.6 52 4.0 SW 24 43 13 23 - - 0.0
24/09:30am 10.8 3.5 2.6 57 3.5 SW 30 44 16 24 - - 0.0
24/09:00am 10.2 3.0 2.8 60 3.2 WSW 30 46 16 25 - - 18.2
24/08:34am 8.7 1.5 3.1 68 2.4 WSW 30 50 16 27 - - 18.2
24/08:30am 8.8 1.3 3.2 68 2.4 WSW 32 50 17 27 - - 18.2
24/08:26am 9.6 2.9 3.4 65 2.7 WSW 28 48 15 26 - - 18.2
24/08:00am 9.1 3.4 2.9 65 2.6 WSW 22 37 12 20 - - 18.2
24/07:30am 8.9 2.3 2.3 63 2.8 WSW 26 39 14 21 - - 18.2
24/07:00am 9.2 2.3 2.5 63 2.8 WSW 28 50 15 27 - - 18.2
24/06:37am 9.1 1.4 2.4 63 2.8 WSW 32 50 17 27 - - 18.2
24/06:30am 8.8 2.3 2.4 64 2.7 WSW 26 46 14 25 - - 18.2
24/06:08am 9.7 2.0 2.1 59 3.2 WSW 32 57 17 31 - - 18.2
24/06:00am 9.7 1.3 1.4 56 3.4 WSW 35 50 19 27 - - 18.2
24/05:30am 10.0 2.0 1.6 56 3.5 WSW 33 54 18 29 - - 18.2
24/05:04am 9.9 2.2 2.3 59 3.2 WSW 32 52 17 28 - - 18.2
24/05:00am 9.8 2.4 1.9 58 3.3 WSW 30 46 16 25 - - 18.2
24/04:30am 9.9 2.6 2.3 59 3.2 WSW 30 57 16 31 - - 18.2
24/04:02am 9.8 2.8 2.2 59 3.2 WSW 28 48 15 26 - - 18.2
24/04:00am 9.7 3.2 2.8 62 3.0 WSW 26 48 14 26 - - 18.2
24/03:30am 9.1 2.3 2.9 65 2.6 SW 28 48 15 26 - - 18.2
24/03:00am 9.4 1.8 2.9 64 2.8 WSW 32 54 17 29 - - 18.2
24/02:30am 9.0 1.0 3.8 70 2.3 WSW 35 57 19 31 - - 18.2
24/02:00am 8.9 0.3 4.7 75 1.9 WSW 39 57 21 31 - - 17.8
24/01:50am 8.2 1.4 5.3 82 1.3 WSW 30 61 16 33 - - 17.6
24/01:37am 6.2 -1.5 2.5 77 1.5 W 32 56 17 30 - - 17.4
24/01:35am 7.7 0.8 2.8 71 2.1 W 28 56 15 30 - - 16.8
24/01:30am 9.4 4.1 4.8 73 2.1 WNW 22 39 12 21 - - 16.2
24/01:00am 8.5 2.6 6.0 84 1.1 WNW 26 44 14 24 - - 16.2
24/12:30am 9.3 1.2 5.3 76 1.8 W 37 56 20 30 - - 15.0
24/12:00am 11.1 2.9 2.9 57 3.6 WNW 35 61 19 33 - - 15.0
 
Date/Time
CST
Temp
°C
App
Temp
°C
Dew
Point
°C
Rel
Hum
%
Delta-T
°C
Wind Press
QNH
hPa
Press
MSL
hPa
Rain since
9am
mm
Dir  Spd
km/h
Gust
km/h
Spd
kts
Gust
kts
23/11:36pm 11.5 3.9 4.0 60 3.4 WNW 33 54 18 29 - - 15.0
23/11:30pm 11.6 5.4 4.3 61 3.3 WNW 26 41 14 22 - - 15.0
23/11:00pm 11.7 4.9 3.2 56 3.7 W 28 46 15 25 - - 15.0
23/10:30pm 10.5 5.8 5.3 70 2.4 WSW 19 30 10 16 - - 15.0
23/10:00pm 9.8 5.6 5.8 76 1.8 WSW 17 28 9 15 - - 15.0
23/09:30pm 8.9 4.7 5.5 79 1.5 W 17 30 9 16 - - 15.0
23/09:00pm 11.0 4.5 4.9 66 2.8 W 28 46 15 25 - - 14.4
23/08:30pm 10.9 3.6 4.4 64 2.9 W 32 50 17 27 - - 14.2
23/08:14pm 10.7 4.0 5.5 70 2.4 WNW 30 48 16 26 - - 14.2
23/08:00pm 10.1 5.7 6.6 79 1.6 WNW 19 32 10 17 - - 14.2
23/07:30pm 9.5 3.6 6.0 79 1.6 WSW 26 41 14 22 - - 14.0
23/07:04pm 9.9 4.2 4.7 70 2.3 WNW 24 57 13 31 - - 13.8
23/07:00pm 10.6 6.3 6.9 78 1.8 NW 19 37 10 20 - - 13.8
23/06:30pm 10.1 7.3 6.8 80 1.6 W 11 22 6 12 - - 13.8
23/06:00pm 8.7 6.1 6.0 83 1.2 WSW 9 15 5 8 - - 13.8
23/05:45pm 9.1 2.6 4.9 75 1.9 WNW 28 57 15 31 - - 13.4
23/05:44pm 10.1 4.2 5.9 75 1.9 WNW 26 57 14 31 - - 13.0
23/05:30pm 11.2 7.3 6.9 75 2.0 NW 17 26 9 14 - - 12.0
23/05:00pm 11.1 7.2 7.2 77 1.9 WNW 17 28 9 15 - - 11.8
23/04:30pm 11.0 7.0 6.6 74 2.1 WNW 17 26 9 14 - - 11.8
23/04:02pm 10.9 4.2 5.7 70 2.4 WNW 30 48 16 26 - - 11.8
23/04:00pm 10.9 3.8 5.7 70 2.4 WNW 32 48 17 26 - - 11.8
23/03:37pm 9.9 3.2 5.7 75 1.9 WNW 30 50 16 27 - - 11.8
23/03:30pm 9.0 1.8 5.7 80 1.5 W 33 59 18 32 - - 11.8
23/03:18pm 10.2 5.6 6.4 77 1.8 W 20 56 11 30 - - 10.8
23/03:00pm 10.1 6.6 7.3 83 1.3 W 15 20 8 11 - - 10.8
23/02:30pm 9.9 6.5 7.8 87 1.0 WSW 15 24 8 13 - - 10.2
23/02:00pm 10.8 5.8 8.0 83 1.4 WNW 24 46 13 25 - - 8.8
23/01:30pm 11.4 7.4 8.4 82 1.5 WNW 19 32 10 17 - - 7.6
23/01:00pm 11.5 7.6 8.5 82 1.5 WNW 19 30 10 16 - - 7.6
23/12:30pm 11.3 7.0 9.2 87 1.1 NW 22 33 12 18 - - 7.4
23/12:00pm 10.9 6.6 9.2 89 0.8 WNW 22 35 12 19 - - 6.2
23/11:30am 10.5 4.4 8.1 85 1.2 WNW 30 52 16 28 - - 4.4
23/11:08am 12.6 6.6 8.7 77 2.0 NNW 30 50 16 27 - - 0.4
23/11:00am 12.6 6.2 8.7 77 2.0 NNW 32 50 17 27 - - 0.2
23/10:38am 12.0 5.4 8.7 80 1.6 NNW 33 56 18 30 - - 0.2
23/10:30am 12.0 5.0 8.5 79 1.7 NNW 35 50 19 27 - - 0.2
23/10:00am 12.9 5.3 7.6 70 2.6 NNW 37 59 20 32 - - 0.0
23/09:34am 12.9 5.7 7.6 70 2.6 NNW 35 57 19 31 - - 0.0
23/09:30am 13.0 5.8 7.7 70 2.6 NNW 35 52 19 28 - - 0.0
23/09:01am 13.1 6.5 7.8 70 2.6 NNW 32 50 17 27 - - 0.0
23/09:00am 13.1 6.6 8.0 71 2.5 NNW 32 48 17 26 - - 0.4
23/08:36am 13.0 6.8 7.9 71 2.5 NNW 30 50 16 27 - - 0.4
23/08:30am 13.0 6.2 7.9 71 2.5 NNW 33 46 18 25 - - 0.4
23/08:01am 12.7 6.6 8.4 75 2.1 NNW 30 48 16 26 - - 0.4
23/08:00am 12.7 7.1 8.6 76 2.0 NNW 28 43 15 23 - - 0.4
23/07:30am 12.8 6.8 8.7 76 2.1 NNW 30 44 16 24 - - 0.4
23/07:02am 12.7 6.4 8.8 77 2.0 NNW 32 52 17 28 - - 0.4
23/07:00am 12.7 6.7 8.8 77 2.0 NNW 30 48 16 26 - - 0.4
23/06:30am 12.6 7.2 9.4 81 1.6 NNW 28 41 15 22 - - 0.4
23/06:00am 12.5 7.2 9.7 83 1.4 NNW 28 43 15 23 - - 0.4
23/05:30am 12.5 6.2 9.7 83 1.4 NNW 33 50 18 27 - - 0.4
23/05:22am 12.5 7.2 9.7 83 1.4 NNW 28 50 15 27 - - 0.4
23/05:00am 12.2 6.5 9.9 86 1.2 NNW 30 48 16 26 - - 0.4
23/04:30am 11.8 6.5 9.9 88 1.0 NNW 28 41 15 22 - - 0.4
23/04:06am 12.4 6.1 9.6 83 1.4 NNW 33 52 18 28 - - 0.2
23/04:00am 12.9 5.7 9.2 78 1.9 NNW 37 54 20 29 - - 0.2
23/03:30am 12.9 6.6 8.8 76 2.1 NNW 32 52 17 28 - - 0.2
23/03:09am 13.2 7.6 8.7 74 2.3 NNW 28 46 15 25 - - 0.2
23/03:00am 13.2 6.8 8.7 74 2.3 NNW 32 48 17 26 - - 0.2
23/02:32am 13.1 6.5 8.6 74 2.3 NNW 33 52 18 28 - - 0.2
23/02:30am 13.1 6.5 8.4 73 2.3 NNW 33 50 18 27 - - 0.2
23/02:12am 13.0 7.3 8.5 74 2.2 NNW 28 54 15 29 - - 0.2
23/02:00am 12.9 7.3 8.8 76 2.1 NNW 28 44 15 24 - - 0.2
23/01:35am 13.0 6.6 8.7 75 2.2 NNW 32 52 17 28 - - 0.2
23/01:30am 13.2 6.6 8.7 74 2.3 NNW 33 52 18 28 - - 0.2
23/01:14am 13.2 6.8 8.7 74 2.3 NNW 32 52 17 28 - - 0.2
23/01:00am 13.3 7.3 8.8 74 2.3 NNW 30 44 16 24 - - 0.2
23/12:30am 13.2 8.0 8.7 74 2.3 NNW 26 35 14 19 - - 0.2
23/12:00am 13.3 7.3 8.6 73 2.4 NNW 30 41 16 22 - - 0.2
 
Date/Time
CST
Temp
°C
App
Temp
°C
Dew
Point
°C
Rel
Hum
%
Delta-T
°C
Wind Press
QNH
hPa
Press
MSL
hPa
Rain since
9am
mm
Dir  Spd
km/h
Gust
km/h
Spd
kts
Gust
kts
22/11:30pm 13.5 8.3 8.8 73 2.4 NW 26 44 14 24 - - 0.2
22/11:00pm 13.4 8.3 9.1 75 2.2 NNW 26 35 14 19 - - 0.2
22/10:30pm 13.5 8.9 9.6 77 2.0 NNW 24 41 13 22 - - 0.2
22/10:00pm 13.5 8.9 9.6 77 2.0 NNW 24 37 13 20 - - 0.2
22/09:30pm 13.3 8.9 8.8 74 2.3 NW 22 39 12 21 - - 0.2
22/09:01pm 12.9 7.3 8.8 76 2.1 NW 28 46 15 25 - - 0.2
22/09:00pm 13.3 8.1 9.0 75 2.2 NW 26 46 14 25 - - 0.2
22/08:30pm 13.4 8.5 8.5 72 2.5 NW 24 37 13 20 - - 0.0
22/08:00pm 13.6 8.2 9.6 77 2.1 NW 28 43 15 23 - - 0.0
22/07:30pm 13.7 9.5 9.6 76 2.1 NNW 22 33 12 18 - - 0.0
22/07:00pm 13.6 9.2 8.9 73 2.4 NNW 22 35 12 19 - - 0.0
22/06:30pm 13.5 9.1 8.8 73 2.4 NW 22 33 12 18 - - 0.0
22/06:00pm 13.5 9.0 8.6 72 2.5 NNW 22 33 12 18 - - 0.0
22/05:30pm 13.7 8.9 9.0 73 2.4 NW 24 37 13 20 - - 0.0
22/05:00pm 13.8 9.7 8.8 72 2.5 NW 20 33 11 18 - - 0.0
22/04:30pm 14.5 10.0 8.5 67 3.0 NW 22 33 12 18 - - 0.0
22/04:00pm 14.7 10.2 8.6 67 3.1 NW 22 33 12 18 - - 0.0
22/03:30pm 14.9 10.3 9.5 70 2.8 NW 24 35 13 19 - - 0.0
22/03:00pm 14.9 10.1 8.8 67 3.1 NW 24 35 13 19 - - 0.0

Latest Capital City Observations: Canberra | Sydney | Melbourne | Brisbane | Adelaide | Perth | Hobart | Darwin

Other Formats:

Comma delimited format used in spreadsheet applications
http://www.bom.gov.au/fwo/IDS60901/IDS60901.94808.axf

JavaScript Object Notation format (JSON) in row-major order
http://www.bom.gov.au/fwo/IDS60901/IDS60901.94808.json